createdAt,value
2019-04-25T00:00:51.430Z,94.00
2019-04-25T00:03:25.144Z,94.10
2019-04-25T00:05:54.497Z,94.10
2019-04-25T00:08:23.924Z,94.10
2019-04-25T00:10:52.925Z,93.80
2019-04-25T00:13:22.392Z,93.80
2019-04-25T00:15:51.882Z,93.20
2019-04-25T00:18:22.116Z,93.30
2019-04-25T00:20:53.789Z,93.50
2019-04-25T00:23:22.720Z,93.90
2019-04-25T00:25:56.017Z,93.80
2019-04-25T00:28:25.085Z,93.60
2019-04-25T00:30:54.078Z,93.80
2019-04-25T00:33:23.164Z,93.80
2019-04-25T00:35:52.869Z,94.00
2019-04-25T00:38:25.187Z,94.00
2019-04-25T00:40:54.153Z,93.90
2019-04-25T00:43:24.773Z,93.60
2019-04-25T00:45:53.740Z,93.90
2019-04-25T00:48:22.731Z,93.90
2019-04-25T00:50:54.453Z,94.00
2019-04-25T00:53:22.289Z,94.00
2019-04-25T00:55:52.506Z,94.10
2019-04-25T00:58:23.432Z,94.10
2019-04-25T01:00:59.920Z,94.00
2019-04-25T01:03:31.695Z,94.10
2019-04-25T01:06:03.445Z,94.20
2019-04-25T01:08:31.952Z,94.10
2019-04-25T01:11:01.795Z,93.90
2019-04-25T01:13:32.199Z,94.10
2019-04-25T01:16:03.828Z,94.40
2019-04-25T01:18:33.602Z,94.50
2019-04-25T01:21:04.334Z,94.20
2019-04-25T01:23:36.327Z,94.10
2019-04-25T01:26:05.823Z,94.40
2019-04-25T01:28:35.555Z,93.60
2019-04-25T01:31:06.524Z,94.20
2019-04-25T01:33:35.456Z,94.10
2019-04-25T01:36:06.026Z,94.30
2019-04-25T01:38:39.282Z,94.10
2019-04-25T01:41:14.443Z,94.40
2019-04-25T01:43:55.155Z,94.60
2019-04-25T01:49:06.102Z,94.70
2019-04-25T01:51:35.045Z,94.80
2019-04-25T01:54:05.187Z,94.80
2019-04-25T01:56:34.080Z,94.70
2019-04-25T01:59:03.861Z,94.80
2019-04-25T02:01:38.614Z,94.80
2019-04-25T02:04:07.834Z,94.80
2019-04-25T02:06:36.800Z,95.10
2019-04-25T02:09:08.403Z,94.60
2019-04-25T02:11:56.856Z,94.80
2019-04-25T02:14:27.137Z,94.60
2019-04-25T02:16:57.146Z,94.80
2019-04-25T02:19:27.531Z,94.80
2019-04-25T02:21:56.545Z,94.80
2019-04-25T02:24:25.370Z,95.00
2019-04-25T02:26:55.243Z,95.30
2019-04-25T02:29:25.068Z,95.00
2019-04-25T02:31:58.521Z,94.80
2019-04-25T02:34:25.057Z,94.90
2019-04-25T02:36:58.103Z,94.70
2019-04-25T02:39:24.823Z,94.70
2019-04-25T02:41:57.856Z,94.60
2019-04-25T02:44:26.113Z,94.70
2019-04-25T02:47:01.015Z,94.80
2019-04-25T02:49:38.248Z,94.90
2019-04-25T02:52:13.077Z,95.00
2019-04-25T02:54:41.789Z,95.20
2019-04-25T02:57:10.744Z,95.30
2019-04-25T02:59:39.685Z,94.80
2019-04-25T03:02:09.849Z,95.10
2019-04-25T03:04:40.977Z,95.10
2019-04-25T03:07:11.230Z,95.00
2019-04-25T03:09:40.663Z,95.30
2019-04-25T03:12:09.630Z,94.50
2019-04-25T03:14:39.697Z,94.50
2019-04-25T03:17:09.924Z,94.70
2019-04-25T03:19:51.356Z,94.90
2019-04-25T03:22:26.419Z,95.00
2019-04-25T03:24:54.762Z,94.80
2019-04-25T03:27:23.083Z,95.00
2019-04-25T03:29:52.020Z,94.60
2019-04-25T03:32:20.952Z,94.90
2019-04-25T03:34:49.922Z,95.10
2019-04-25T03:37:18.853Z,94.90
2019-04-25T03:39:47.744Z,95.00
2019-04-25T03:42:16.685Z,95.10
2019-04-25T03:44:45.579Z,95.20
2019-04-25T03:47:17.463Z,95.20
2019-04-25T03:49:46.356Z,95.20
2019-04-25T03:52:15.348Z,95.10
2019-04-25T03:54:44.280Z,95.00
2019-04-25T03:57:14.521Z,94.80
2019-04-25T03:59:43.823Z,94.90
2019-04-25T04:02:13.491Z,94.60
2019-04-25T04:04:43.592Z,94.60
2019-04-25T04:07:14.324Z,94.90
2019-04-25T04:09:43.597Z,95.00
2019-04-25T04:12:14.494Z,94.80
2019-04-25T04:14:43.791Z,94.90
2019-04-25T04:17:29.147Z,95.20
2019-04-25T04:20:03.839Z,95.30
2019-04-25T04:22:34.444Z,95.20
2019-04-25T04:25:03.974Z,95.00
2019-04-25T04:27:33.669Z,95.20
2019-04-25T04:30:06.380Z,95.00
2019-04-25T04:32:36.596Z,95.10
2019-04-25T04:35:06.525Z,95.20
2019-04-25T04:37:36.191Z,95.20
2019-04-25T04:40:05.893Z,95.10
2019-04-25T04:42:34.886Z,95.30
2019-04-25T04:45:04.496Z,95.20
2019-04-25T04:47:34.819Z,95.20
2019-04-25T04:50:04.627Z,95.10
2019-04-25T04:52:34.093Z,95.00
2019-04-25T04:55:08.333Z,95.10
2019-04-25T04:57:36.207Z,95.10
2019-04-25T05:00:07.948Z,95.20
2019-04-25T05:02:47.444Z,95.30
2019-04-25T05:05:23.491Z,94.90
2019-04-25T05:07:57.936Z,95.10
2019-04-25T05:10:26.827Z,95.30
2019-04-25T05:12:55.835Z,95.00
2019-04-25T05:15:26.422Z,94.80
2019-04-25T05:17:55.307Z,94.90
2019-04-25T05:20:24.390Z,95.00
2019-04-25T05:22:54.950Z,94.60
2019-04-25T05:25:24.700Z,94.90
2019-04-25T05:28:02.058Z,94.80
2019-04-25T05:30:33.661Z,94.30
2019-04-25T05:33:04.768Z,94.50
2019-04-25T05:35:33.697Z,94.20
2019-04-25T05:38:03.443Z,94.10
2019-04-25T05:40:34.279Z,93.90
2019-04-25T05:43:04.883Z,93.80
2019-04-25T05:45:34.293Z,94.20
2019-04-25T05:48:04.314Z,93.90
2019-04-25T05:50:37.723Z,93.30
2019-04-25T05:53:06.820Z,93.00
2019-04-25T05:55:35.812Z,93.30
2019-04-25T05:58:06.006Z,92.90
2019-04-25T06:00:34.921Z,92.60
2019-04-25T06:03:03.865Z,92.50
2019-04-25T06:05:33.545Z,92.40
2019-04-25T06:08:04.564Z,92.30
2019-04-25T06:10:50.504Z,92.10
2019-04-25T06:13:33.430Z,92.20
2019-04-25T06:16:04.039Z,91.50
2019-04-25T06:18:40.401Z,91.20
2019-04-25T06:21:13.355Z,91.20
2019-04-25T06:23:51.000Z,91.10
2019-04-25T06:26:29.942Z,90.80
2019-04-25T06:28:57.109Z,90.60
2019-04-25T06:31:21.445Z,91.30
2019-04-25T06:33:50.740Z,90.50
2019-04-25T06:36:20.976Z,90.60
2019-04-25T06:38:51.043Z,90.20
2019-04-25T06:41:19.947Z,89.90
2019-04-25T06:43:50.540Z,89.20
2019-04-25T06:46:56.231Z,90.10
2019-04-25T06:49:29.817Z,90.70
2019-04-25T06:52:00.255Z,89.40
2019-04-25T06:54:29.659Z,88.10
2019-04-25T06:56:58.583Z,87.30
2019-04-25T06:59:28.738Z,88.10
2019-04-25T07:01:57.887Z,86.70
2019-04-25T07:04:27.939Z,87.90
2019-04-25T07:07:09.377Z,87.70
2019-04-25T07:09:29.571Z,86.60
2019-04-25T07:11:58.495Z,89.00
2019-04-25T07:14:28.199Z,88.80
2019-04-25T07:16:59.667Z,86.80
2019-04-25T07:19:29.848Z,86.70
2019-04-25T07:22:00.158Z,86.20
2019-04-25T07:24:29.167Z,86.50
2019-04-25T07:27:03.748Z,84.60
2019-04-25T07:29:38.955Z,85.20
2019-04-25T07:32:14.323Z,86.80
2019-04-25T07:34:43.794Z,86.00
2019-04-25T07:37:13.285Z,85.80
2019-04-25T07:39:44.236Z,86.50
2019-04-25T07:42:15.220Z,85.60
2019-04-25T07:44:50.596Z,82.40
2019-04-25T07:47:15.946Z,84.50
2019-04-25T07:49:45.284Z,84.40
2019-04-25T07:52:14.212Z,82.90
2019-04-25T07:54:44.005Z,82.30
2019-04-25T07:57:15.533Z,81.80
2019-04-25T07:59:44.528Z,83.40
2019-04-25T08:02:14.675Z,82.00
2019-04-25T08:04:44.308Z,81.50
2019-04-25T08:07:14.224Z,81.80
2019-04-25T08:09:44.303Z,79.30
2019-04-25T08:12:13.728Z,79.90
2019-04-25T08:14:48.083Z,77.90
2019-04-25T08:17:18.620Z,80.50
2019-04-25T08:19:47.925Z,78.30
2019-04-25T08:22:16.883Z,80.00
2019-04-25T08:24:45.816Z,79.70
2019-04-25T08:27:15.574Z,79.10
2019-04-25T08:29:45.484Z,76.90
2019-04-25T08:32:15.866Z,77.00
2019-04-25T08:34:44.841Z,74.60
2019-04-25T08:37:19.043Z,77.30
2019-04-25T08:39:45.164Z,75.10
2019-04-25T08:42:14.820Z,78.00
2019-04-25T08:44:44.946Z,75.40
2019-04-25T08:47:19.991Z,73.10
2019-04-25T08:49:56.175Z,73.30
2019-04-25T08:52:25.111Z,74.80
2019-04-25T08:55:01.537Z,73.10
2019-04-25T08:57:48.723Z,73.70
2019-04-25T09:00:19.267Z,75.30
2019-04-25T09:02:58.927Z,76.70
2019-04-25T09:05:29.575Z,73.10
2019-04-25T09:07:58.567Z,69.70
2019-04-25T09:10:27.503Z,72.10
2019-04-25T09:12:56.396Z,73.00
2019-04-25T09:15:25.328Z,71.80
2019-04-25T09:17:54.749Z,70.30
2019-04-25T09:20:24.108Z,72.40
2019-04-25T09:22:54.275Z,71.20
2019-04-25T09:25:24.009Z,70.60
2019-04-25T09:27:54.365Z,70.40
2019-04-25T09:30:24.122Z,70.10
2019-04-25T09:32:53.500Z,69.40
2019-04-25T09:35:23.626Z,68.00
2019-04-25T09:37:53.541Z,68.70
2019-04-25T09:40:23.981Z,65.70
2019-04-25T09:42:53.901Z,64.80
2019-04-25T09:45:27.120Z,66.10
2019-04-25T09:48:00.687Z,64.70
2019-04-25T09:50:40.120Z,65.50
2019-04-25T09:53:21.059Z,65.40
2019-04-25T09:55:56.547Z,64.30
2019-04-25T09:58:36.577Z,64.80
2019-04-25T10:01:08.883Z,62.10
2019-04-25T10:03:38.641Z,59.50
2019-04-25T10:06:07.691Z,62.80
2019-04-25T10:08:37.012Z,61.90
2019-04-25T10:11:06.013Z,63.90
2019-04-25T10:13:34.903Z,61.80
2019-04-25T10:16:05.503Z,62.20
2019-04-25T10:18:34.939Z,59.40
2019-04-25T10:21:05.504Z,60.50
2019-04-25T10:23:34.438Z,61.10
2019-04-25T10:26:03.955Z,62.30
2019-04-25T10:28:33.627Z,63.00
2019-04-25T10:31:03.608Z,61.90
2019-04-25T10:33:32.895Z,63.00
2019-04-25T10:36:01.868Z,63.70
2019-04-25T10:38:30.918Z,60.40
2019-04-25T10:40:59.943Z,61.60
2019-04-25T10:43:28.952Z,59.10
2019-04-25T10:45:57.954Z,57.80
2019-04-25T10:48:28.281Z,57.20
2019-04-25T10:50:57.283Z,55.60
2019-04-25T10:53:26.280Z,53.40
2019-04-25T10:55:55.275Z,54.60
2019-04-25T10:58:25.444Z,55.20
2019-04-25T11:00:54.507Z,57.00
2019-04-25T11:03:30.892Z,55.50
2019-04-25T11:05:59.947Z,56.50
2019-04-25T11:08:28.959Z,54.00
2019-04-25T11:10:59.064Z,53.80
2019-04-25T11:13:28.246Z,55.20
2019-04-25T11:15:57.300Z,55.30
2019-04-25T11:18:27.396Z,54.20
2019-04-25T11:20:56.388Z,52.30
2019-04-25T11:23:25.357Z,53.20
2019-04-25T11:25:54.310Z,54.10
2019-04-25T11:28:23.522Z,54.20
2019-04-25T11:30:54.174Z,56.60
2019-04-25T11:33:24.663Z,56.80
2019-04-25T11:35:56.266Z,53.70
2019-04-25T11:38:30.801Z,52.80
2019-04-25T11:41:01.507Z,56.70
2019-04-25T11:43:33.746Z,54.80
2019-04-25T13:10:29.145Z,58.90
